Time;durP1;ratioP1;P1;durP2;ratioP2;P2;SDS_P1;SDS_P2;PMS_P1;PMS_P2;Temp;Humidity;BMP_temperature;BMP_pressure;BME280_temperature;BME280_humidity;BME280_pressure;Samples;Min_cycle;Max_cycle;Signal;HPM_P1;HPM_P2
2021/10/28 00:14:41;;;;;;;176.02;58.75;;;;;;;;;;5044089;28;20396;-73
2021/10/28 00:17:16;;;;;;;157.57;54.28;;;;;;;;;;5037042;28;20090;-73
2021/10/28 00:19:42;;;;;;;171.75;58.38;;;;;;;;;;5039745;28;20492;-73
2021/10/28 00:22:09;;;;;;;156.57;56.63;;;;;;;;;;5043770;28;20029;-74
2021/10/28 00:24:34;;;;;;;194.10;57.97;;;;;;;;;;5047698;28;20039;-73
2021/10/28 00:26:59;;;;;;;156.45;58.08;;;;;;;;;;5045185;28;20504;-74
2021/10/28 00:29:26;;;;;;;166.07;59.08;;;;;;;;;;5046284;28;20039;-73
2021/10/28 00:31:52;;;;;;;140.48;53.28;;;;;;;;;;5044960;28;20029;-74
2021/10/28 00:34:17;;;;;;;145.80;53.30;;;;;;;;;;5047985;28;20028;-73
2021/10/28 00:36:44;;;;;;;165.25;56.30;;;;;;;;;;5038049;28;20453;-74
2021/10/28 00:39:09;;;;;;;199.20;61.42;;;;;;;;;;5047484;28;20109;-73
2021/10/28 00:41:35;;;;;;;138.45;55.85;;;;;;;;;;5040458;28;20885;-73
2021/10/28 00:44:01;;;;;;;130.82;54.80;;;;;;;;;;5042550;28;20029;-73
2021/10/28 00:46:28;;;;;;;135.77;52.72;;;;;;;;;;5037093;28;20108;-73
2021/10/28 00:48:54;;;;;;;133.80;56.47;;;;;;;;;;5052834;28;20182;-73
2021/10/28 00:51:21;;;;;;;132.80;52.88;;;;;;;;;;5040938;28;20104;-73
2021/10/28 00:53:47;;;;;;;124.68;50.97;;;;;;;;;;5040003;28;20034;-73
2021/10/28 00:56:13;;;;;;;134.48;53.42;;;;;;;;;;5041158;28;20036;-73
2021/10/28 00:58:39;;;;;;;111.15;48.63;;;;;;;;;;5043406;28;20060;-74
2021/10/28 01:01:05;;;;;;;95.20;46.28;;;;;;;;;;5042126;28;20449;-73
2021/10/28 01:03:31;;;;;;;92.45;45.78;;;;;;;;;;5047382;28;20025;-74
2021/10/28 01:05:57;;;;;;;80.65;41.53;;;;;;;;;;5044386;28;20073;-72
2021/10/28 01:08:22;;;;;;;89.03;43.38;;;;;;;;;;5050557;28;20479;-73
2021/10/28 01:10:49;;;;;;;71.95;38.35;;;;;;;;;;5051117;28;20104;-75
2021/10/28 01:13:14;;;;;;;77.63;39.03;;;;;;;;;;5046597;28;20016;-73
2021/10/28 01:15:40;;;;;;;67.28;37.05;;;;;;;;;;5044937;28;20334;-74
2021/10/28 01:18:12;;;;;;;59.65;33.58;;;;;;;;;;5052040;28;20021;-74
2021/10/28 01:20:38;;;;;;;68.43;37.30;;;;;;;;;;5050517;28;20029;-73
2021/10/28 01:23:03;;;;;;;59.22;31.15;;;;;;;;;;5048543;28;20096;-74
2021/10/28 01:25:29;;;;;;;59.60;32.75;;;;;;;;;;5047647;28;20105;-73
2021/10/28 01:27:54;;;;;;;64.25;35.35;;;;;;;;;;5044186;28;20021;-73
2021/10/28 01:30:19;;;;;;;55.00;31.40;;;;;;;;;;5050624;28;20035;-73
2021/10/28 01:32:44;;;;;;;59.17;33.35;;;;;;;;;;5051121;28;20021;-74
2021/10/28 01:35:10;;;;;;;62.75;33.67;;;;;;;;;;5048313;28;20033;-73
2021/10/28 01:37:39;;;;;;;51.35;29.65;;;;;;;;;;5045972;28;20249;-73
2021/10/28 01:40:05;;;;;;;63.53;34.83;;;;;;;;;;5049356;28;20509;-73
2021/10/28 01:42:30;;;;;;;63.75;33.50;;;;;;;;;;5045097;28;20017;-74
2021/10/28 01:44:55;;;;;;;59.75;28.48;;;;;;;;;;5039106;28;20109;-73
2021/10/28 01:47:20;;;;;;;69.20;31.30;;;;;;;;;;5048643;28;20028;-72
2021/10/28 01:49:45;;;;;;;68.35;34.53;;;;;;;;;;5050218;28;20025;-72
2021/10/28 01:52:12;;;;;;;64.72;36.38;;;;;;;;;;5046170;28;20021;-72
2021/10/28 01:54:37;;;;;;;55.28;30.52;;;;;;;;;;5044674;28;20115;-72
2021/10/28 01:57:02;;;;;;;59.17;32.72;;;;;;;;;;5049912;28;20397;-72
2021/10/28 01:59:27;;;;;;;56.15;31.27;;;;;;;;;;5034969;28;20044;-71
2021/10/28 02:01:53;;;;;;;57.05;32.70;;;;;;;;;;5049415;28;20048;-73
2021/10/28 02:04:19;;;;;;;60.72;33.17;;;;;;;;;;5050684;28;20032;-73
2021/10/28 02:06:44;;;;;;;61.65;33.92;;;;;;;;;;5045539;28;20040;-74
2021/10/28 02:09:11;;;;;;;48.75;29.23;;;;;;;;;;5044186;28;20827;-73
2021/10/28 02:11:36;;;;;;;50.20;29.30;;;;;;;;;;5049275;28;20069;-73
2021/10/28 02:14:01;;;;;;;45.92;27.80;;;;;;;;;;5045475;28;20032;-73
2021/10/28 02:16:27;;;;;;;48.38;28.13;;;;;;;;;;5049257;28;20024;-73
2021/10/28 02:18:52;;;;;;;44.47;27.00;;;;;;;;;;5049781;28;20043;-73
2021/10/28 02:21:17;;;;;;;44.30;27.23;;;;;;;;;;5044714;28;20029;-73
2021/10/28 02:23:43;;;;;;;43.00;26.67;;;;;;;;;;5047495;28;20021;-74
2021/10/28 02:26:08;;;;;;;41.78;26.98;;;;;;;;;;5044529;28;20090;-73
2021/10/28 02:28:33;;;;;;;38.95;23.75;;;;;;;;;;5041103;28;20022;-72
2021/10/28 02:30:58;;;;;;;44.60;25.20;;;;;;;;;;5046391;28;20032;-73
2021/10/28 02:33:24;;;;;;;37.72;22.88;;;;;;;;;;5049360;28;20012;-73
2021/10/28 02:35:49;;;;;;;41.90;25.15;;;;;;;;;;5058723;28;20075;-74
2021/10/28 02:38:14;;;;;;;45.72;26.27;;;;;;;;;;5049885;28;20068;-73
2021/10/28 02:40:40;;;;;;;39.05;24.42;;;;;;;;;;5040998;28;20404;-73
2021/10/28 02:43:05;;;;;;;52.13;28.55;;;;;;;;;;5041418;28;20025;-73
2021/10/28 02:45:30;;;;;;;48.47;28.95;;;;;;;;;;5048865;28;20095;-73
2021/10/28 02:47:56;;;;;;;44.50;26.17;;;;;;;;;;5049755;28;20067;-72
2021/10/28 02:50:21;;;;;;;40.08;23.88;;;;;;;;;;5048134;28;20471;-72
2021/10/28 02:52:47;;;;;;;40.70;25.05;;;;;;;;;;5049370;28;20036;-73
2021/10/28 02:55:12;;;;;;;43.85;26.13;;;;;;;;;;5047646;28;20060;-72
2021/10/28 02:57:41;;;;;;;53.85;26.45;;;;;;;;;;5050264;28;20049;-74
2021/10/28 03:00:07;;;;;;;52.17;30.23;;;;;;;;;;5042690;28;20065;-72
2021/10/28 03:02:32;;;;;;;47.10;26.45;;;;;;;;;;5042214;28;20459;-73
2021/10/28 03:04:58;;;;;;;46.50;27.80;;;;;;;;;;5044976;28;20015;-72
2021/10/28 03:07:23;;;;;;;47.88;28.40;;;;;;;;;;5048685;28;20128;-72
2021/10/28 03:09:49;;;;;;;50.42;29.52;;;;;;;;;;5046178;28;20093;-73
2021/10/28 03:12:14;;;;;;;40.65;25.60;;;;;;;;;;5047684;28;20451;-72
2021/10/28 03:14:49;;;;;;;42.10;26.02;;;;;;;;;;5039469;28;20396;-72
2021/10/28 03:17:42;;;;;;;47.58;27.45;;;;;;;;;;5046651;28;20082;-72
2021/10/28 03:28:18;;;;;;;43.35;25.25;;;;;;;;;;5041757;28;20071;-73
2021/10/28 03:30:43;;;;;;;46.75;26.77;;;;;;;;;;5042151;28;20576;-73
2021/10/28 03:33:12;;;;;;;52.13;29.13;;;;;;;;;;5047041;28;20033;-73
2021/10/28 03:35:38;;;;;;;44.97;26.65;;;;;;;;;;5041406;28;20036;-73
2021/10/28 03:38:26;;;;;;;51.15;28.58;;;;;;;;;;5046258;28;20037;-74
2021/10/28 04:16:35;;;;;;;54.60;29.15;;;;;;;;;;5048896;28;20024;-73
2021/10/28 04:29:03;;;;;;;62.40;30.77;;;;;;;;;;5039374;28;20083;-73
2021/10/28 04:31:30;;;;;;;54.45;27.63;;;;;;;;;;5032729;28;20057;-74
2021/10/28 04:33:58;;;;;;;61.30;30.02;;;;;;;;;;5036916;28;20112;-74
2021/10/28 04:36:28;;;;;;;62.22;31.58;;;;;;;;;;5042777;28;20041;-73
2021/10/28 04:38:53;;;;;;;63.35;31.50;;;;;;;;;;5039771;28;20013;-74
2021/10/28 04:41:18;;;;;;;59.50;30.95;;;;;;;;;;5041268;28;20035;-74
2021/10/28 04:43:43;;;;;;;53.47;30.92;;;;;;;;;;5042781;28;20483;-73
2021/10/28 04:46:08;;;;;;;50.47;28.13;;;;;;;;;;5046998;28;20017;-74
2021/10/28 04:48:34;;;;;;;43.63;24.85;;;;;;;;;;5048704;28;20404;-73
2021/10/28 04:50:59;;;;;;;48.22;26.50;;;;;;;;;;5040888;28;20037;-74
2021/10/28 04:53:25;;;;;;;43.67;25.88;;;;;;;;;;5040319;28;20029;-75
2021/10/28 04:55:50;;;;;;;58.97;29.92;;;;;;;;;;5048725;28;20032;-73
2021/10/28 04:58:15;;;;;;;51.45;28.27;;;;;;;;;;5043662;28;20053;-73
2021/10/28 05:00:40;;;;;;;50.83;28.00;;;;;;;;;;5049184;28;20485;-74
2021/10/28 05:03:05;;;;;;;52.50;29.23;;;;;;;;;;5045615;28;20037;-73
2021/10/28 05:05:31;;;;;;;52.45;29.42;;;;;;;;;;5047815;28;20044;-74
2021/10/28 05:07:56;;;;;;;54.92;29.33;;;;;;;;;;5051881;28;20021;-72
2021/10/28 05:10:21;;;;;;;59.13;29.55;;;;;;;;;;5052015;28;20025;-73
2021/10/28 05:12:46;;;;;;;54.90;30.17;;;;;;;;;;5050648;28;20052;-73
2021/10/28 05:15:12;;;;;;;49.60;26.40;;;;;;;;;;5050092;28;20044;-74
2021/10/28 05:17:37;;;;;;;48.03;25.92;;;;;;;;;;5048069;28;20649;-73
2021/10/28 05:20:03;;;;;;;57.10;28.80;;;;;;;;;;5048892;28;20040;-73
2021/10/28 05:22:28;;;;;;;48.38;27.70;;;;;;;;;;5050668;28;20033;-74
2021/10/28 05:24:53;;;;;;;57.03;29.38;;;;;;;;;;5042385;28;20426;-73
2021/10/28 05:27:19;;;;;;;54.30;27.92;;;;;;;;;;5051814;28;20438;-73
2021/10/28 05:29:44;;;;;;;56.50;28.83;;;;;;;;;;5051830;28;20108;-74
2021/10/28 05:32:09;;;;;;;51.55;27.10;;;;;;;;;;5051571;28;20029;-73
2021/10/28 05:34:36;;;;;;;54.88;28.48;;;;;;;;;;5048612;28;20029;-73
2021/10/28 05:37:02;;;;;;;56.47;30.15;;;;;;;;;;5046464;28;20126;-73
2021/10/28 05:39:27;;;;;;;56.40;30.92;;;;;;;;;;5038311;28;20564;-74
2021/10/28 05:41:52;;;;;;;58.45;30.33;;;;;;;;;;5044010;28;20032;-73
2021/10/28 05:44:17;;;;;;;56.85;29.98;;;;;;;;;;5048886;28;20527;-73
2021/10/28 05:46:43;;;;;;;64.55;31.50;;;;;;;;;;5047971;28;20028;-72
2021/10/28 05:49:08;;;;;;;53.80;28.63;;;;;;;;;;5046523;28;20099;-73
2021/10/28 05:51:36;;;;;;;58.70;30.73;;;;;;;;;;5048550;28;20106;-73
2021/10/28 05:54:01;;;;;;;59.63;31.23;;;;;;;;;;5049706;28;20067;-72
2021/10/28 05:56:27;;;;;;;57.38;30.63;;;;;;;;;;5045653;28;20037;-73
2021/10/28 05:58:52;;;;;;;62.38;31.60;;;;;;;;;;5050967;28;20142;-73
2021/10/28 06:01:17;;;;;;;59.25;31.35;;;;;;;;;;5044733;28;20395;-72
2021/10/28 06:03:42;;;;;;;58.58;31.15;;;;;;;;;;5050435;28;20021;-69
2021/10/28 06:06:07;;;;;;;59.05;30.27;;;;;;;;;;5048877;28;20418;-70
2021/10/28 06:08:34;;;;;;;60.20;29.45;;;;;;;;;;5044274;28;20014;-68
2021/10/28 06:10:59;;;;;;;59.88;31.60;;;;;;;;;;5044135;28;20049;-69
2021/10/28 06:13:26;;;;;;;64.28;28.92;;;;;;;;;;5050954;28;20090;-69
2021/10/28 06:15:51;;;;;;;57.97;30.60;;;;;;;;;;5047965;28;20120;-68
2021/10/28 06:18:38;;;;;;;54.47;28.67;;;;;;;;;;5049964;28;20456;-67
2021/10/28 06:21:01;;;;;;;57.15;30.98;;;;;;;;;;5044654;28;20045;-68
2021/10/28 06:23:27;;;;;;;62.42;30.73;;;;;;;;;;5050868;28;20024;-68
2021/10/28 06:25:52;;;;;;;69.68;29.58;;;;;;;;;;5049321;28;20029;-66
2021/10/28 06:28:17;;;;;;;50.10;27.30;;;;;;;;;;5045287;28;20036;-65
2021/10/28 06:30:43;;;;;;;57.42;28.75;;;;;;;;;;5048856;28;20027;-65
2021/10/28 06:33:31;;;;;;;52.95;28.15;;;;;;;;;;5053460;28;20029;-65
2021/10/28 06:35:54;;;;;;;54.08;28.33;;;;;;;;;;5058959;28;20504;-66
2021/10/28 06:38:20;;;;;;;52.45;28.23;;;;;;;;;;5058925;28;20107;-66
2021/10/28 06:40:45;;;;;;;52.53;28.77;;;;;;;;;;5060806;28;20119;-65
2021/10/28 06:43:11;;;;;;;49.42;26.88;;;;;;;;;;5057366;28;20368;-66
2021/10/28 06:45:36;;;;;;;48.08;26.95;;;;;;;;;;5061199;28;20027;-64
2021/10/28 06:48:01;;;;;;;44.30;24.90;;;;;;;;;;5059311;28;20025;-65
2021/10/28 06:50:34;;;;;;;49.25;28.38;;;;;;;;;;5054279;28;20025;-66
2021/10/28 07:03:23;;;;;;;44.63;25.80;;;;;;;;;;5056028;28;20036;-65
2021/10/28 07:05:49;;;;;;;38.17;23.13;;;;;;;;;;5051079;28;20108;-65
2021/10/28 07:08:15;;;;;;;39.33;22.85;;;;;;;;;;5054914;28;20112;-66
2021/10/28 07:10:41;;;;;;;47.72;25.70;;;;;;;;;;5057360;28;20464;-66
2021/10/28 07:13:12;;;;;;;37.10;22.95;;;;;;;;;;5060266;28;20021;-65
2021/10/28 07:15:44;;;;;;;38.35;22.25;;;;;;;;;;5049939;28;20033;-66
2021/10/28 07:58:09;;;;;;;31.33;19.30;;;;;;;;;;5048299;28;20060;-66
2021/10/28 08:18:55;;;;;;;25.80;17.63;;;;;;;;;;5044519;28;20055;-65
2021/10/28 08:21:32;;;;;;;26.38;17.40;;;;;;;;;;5046019;28;20041;-66
2021/10/28 08:29:31;;;;;;;26.85;17.90;;;;;;;;;;5038913;28;20056;-65
2021/10/28 08:31:56;;;;;;;27.08;18.42;;;;;;;;;;5040983;28;20609;-60
2021/10/28 08:34:27;;;;;;;24.02;16.48;;;;;;;;;;5040459;28;20136;-62
2021/10/28 08:36:53;;;;;;;24.75;17.00;;;;;;;;;;5042549;28;20037;-62
2021/10/28 08:39:20;;;;;;;23.98;16.30;;;;;;;;;;5041002;28;20118;-62
2021/10/28 08:41:46;;;;;;;23.45;16.17;;;;;;;;;;5043356;28;20187;-61
2021/10/28 08:44:13;;;;;;;22.30;16.10;;;;;;;;;;5034970;28;20096;-62
2021/10/28 08:46:41;;;;;;;27.23;17.13;;;;;;;;;;5045395;28;20083;-62
2021/10/28 08:49:15;;;;;;;27.67;17.77;;;;;;;;;;5047122;28;20017;-63
2021/10/28 08:54:51;;;;;;;27.25;18.08;;;;;;;;;;5048301;28;20082;-62
2021/10/28 09:25:20;;;;;;;24.80;16.85;;;;;;;;;;5014467;28;20040;-62
2021/10/28 09:27:47;;;;;;;24.27;17.02;;;;;;;;;;5028848;28;20526;-62
2021/10/28 09:30:31;;;;;;;24.75;17.52;;;;;;;;;;5028584;28;20116;-62
2021/10/28 09:33:06;;;;;;;25.15;17.40;;;;;;;;;;5041555;28;20117;-62
2021/10/28 09:35:49;;;;;;;25.42;17.80;;;;;;;;;;5051400;28;20020;-61
2021/10/28 09:46:37;;;;;;;17.75;13.30;;;;;;;;;;5050905;28;20024;-61
2021/10/28 09:51:51;;;;;;;20.23;13.23;;;;;;;;;;5042493;28;20033;-62
2021/10/28 09:54:40;;;;;;;16.70;12.13;;;;;;;;;;5045330;28;20322;-62
2021/10/28 09:59:49;;;;;;;14.77;10.30;;;;;;;;;;5050005;28;20443;-60
2021/10/28 10:02:18;;;;;;;17.75;12.75;;;;;;;;;;5050714;28;20037;-62
2021/10/28 10:04:45;;;;;;;15.55;11.88;;;;;;;;;;5051486;28;20099;-62
2021/10/28 10:07:11;;;;;;;17.75;12.20;;;;;;;;;;5051019;28;20021;-61
2021/10/28 10:09:40;;;;;;;19.10;12.52;;;;;;;;;;5056599;28;20017;-62
2021/10/28 10:12:08;;;;;;;20.00;12.45;;;;;;;;;;5050622;28;20325;-63
2021/10/28 10:14:34;;;;;;;17.35;12.77;;;;;;;;;;5044265;28;20048;-62
2021/10/28 10:17:00;;;;;;;20.55;13.25;;;;;;;;;;5048241;28;20108;-61
2021/10/28 10:19:32;;;;;;;20.05;13.52;;;;;;;;;;5050377;28;20109;-62
2021/10/28 10:22:03;;;;;;;16.50;12.32;;;;;;;;;;5044432;28;20029;-62
2021/10/28 10:24:46;;;;;;;15.85;12.70;;;;;;;;;;5049822;28;20025;-61
2021/10/28 11:58:58;;;;;;;16.15;9.68;;;;;;;;;;4998236;28;20033;-62
2021/10/28 12:13:47;;;;;;;12.90;8.80;;;;;;;;;;5038277;28;20044;-62
2021/10/28 12:43:26;;;;;;;14.38;9.48;;;;;;;;;;5041969;28;20495;-62
2021/10/28 13:38:06;;;;;;;19.38;10.90;;;;;;;;;;5028100;28;20017;-61
2021/10/28 13:48:55;;;;;;;16.50;12.18;;;;;;;;;;5028139;28;20083;-62
2021/10/28 14:31:18;;;;;;;14.93;10.35;;;;;;;;;;5039941;28;20025;-62
2021/10/28 15:28:03;;;;;;;15.57;11.50;;;;;;;;;;5043942;28;20112;-64
2021/10/28 15:30:42;;;;;;;16.98;11.57;;;;;;;;;;5039889;28;20013;-62
2021/10/28 15:52:17;;;;;;;22.05;14.63;;;;;;;;;;5040079;28;20102;-62
2021/10/28 16:00:23;;;;;;;22.75;15.25;;;;;;;;;;4988007;28;20131;-62
2021/10/28 16:21:57;;;;;;;25.45;19.17;;;;;;;;;;4980944;28;20049;-62
2021/10/28 16:24:23;;;;;;;26.92;18.85;;;;;;;;;;4974445;28;20117;-62
2021/10/28 16:26:49;;;;;;;26.13;17.52;;;;;;;;;;4985318;28;20022;-62
2021/10/28 16:29:14;;;;;;;25.25;17.50;;;;;;;;;;4985330;28;20026;-62
2021/10/28 16:31:41;;;;;;;26.52;19.52;;;;;;;;;;4984723;28;20407;-62
2021/10/28 16:34:06;;;;;;;26.05;18.92;;;;;;;;;;4979705;28;20453;-61
2021/10/28 16:36:31;;;;;;;28.67;19.92;;;;;;;;;;5034179;28;20036;-64
2021/10/28 16:38:58;;;;;;;26.15;19.17;;;;;;;;;;5047753;28;20020;-62
2021/10/28 16:41:24;;;;;;;26.75;19.95;;;;;;;;;;5040226;28;20039;-63
2021/10/28 16:43:49;;;;;;;28.65;20.90;;;;;;;;;;5041182;28;20029;-63
2021/10/28 16:46:14;;;;;;;29.38;20.35;;;;;;;;;;5042428;28;20033;-62
2021/10/28 16:48:40;;;;;;;30.02;20.25;;;;;;;;;;5049661;28;20793;-63
2021/10/28 16:51:06;;;;;;;29.58;21.17;;;;;;;;;;5045893;28;20033;-63
2021/10/28 16:53:32;;;;;;;34.65;22.23;;;;;;;;;;5037762;28;20060;-62
2021/10/28 16:55:58;;;;;;;29.60;20.55;;;;;;;;;;5040729;28;20047;-61
2021/10/28 16:58:24;;;;;;;30.92;21.67;;;;;;;;;;5042716;28;20051;-65
2021/10/28 17:00:49;;;;;;;32.22;22.45;;;;;;;;;;5038481;28;20037;-63
2021/10/28 17:03:15;;;;;;;32.03;22.45;;;;;;;;;;5045127;28;20120;-63
2021/10/28 17:05:40;;;;;;;28.60;21.17;;;;;;;;;;5046357;28;20104;-63
2021/10/28 17:08:06;;;;;;;30.20;20.80;;;;;;;;;;5042773;28;20539;-62
2021/10/28 17:10:31;;;;;;;31.50;21.85;;;;;;;;;;5044406;28;20021;-62
2021/10/28 17:12:57;;;;;;;30.58;20.90;;;;;;;;;;5044265;28;20024;-63
2021/10/28 17:15:22;;;;;;;30.35;21.52;;;;;;;;;;5046516;28;20013;-63
2021/10/28 17:17:48;;;;;;;30.83;21.35;;;;;;;;;;5041876;28;20036;-62
2021/10/28 17:20:13;;;;;;;29.30;21.63;;;;;;;;;;5040491;28;20021;-63
2021/10/28 17:22:38;;;;;;;30.42;22.08;;;;;;;;;;5046497;28;20549;-63
2021/10/28 17:25:05;;;;;;;29.95;20.83;;;;;;;;;;5043987;28;20020;-63
2021/10/28 17:27:30;;;;;;;31.98;22.20;;;;;;;;;;5045596;28;20021;-63
2021/10/28 17:29:56;;;;;;;29.35;21.45;;;;;;;;;;5033845;28;20037;-63
2021/10/28 17:32:21;;;;;;;30.38;21.38;;;;;;;;;;5041789;28;20032;-64
2021/10/28 17:34:46;;;;;;;28.83;21.13;;;;;;;;;;5035957;28;20033;-63
2021/10/28 17:37:12;;;;;;;33.95;22.92;;;;;;;;;;5041739;28;20045;-63
2021/10/28 17:39:37;;;;;;;31.35;21.17;;;;;;;;;;5046397;28;20043;-62
2021/10/28 17:42:02;;;;;;;30.35;21.45;;;;;;;;;;5043964;28;20468;-62
2021/10/28 17:44:52;;;;;;;30.90;21.25;;;;;;;;;;5044440;28;20504;-74
2021/10/28 17:47:17;;;;;;;28.88;20.73;;;;;;;;;;5038273;28;20043;-75
2021/10/28 17:49:42;;;;;;;34.97;21.88;;;;;;;;;;5050433;28;20029;-74
2021/10/28 17:52:08;;;;;;;31.50;22.23;;;;;;;;;;5039095;28;20033;-72
2021/10/28 17:54:35;;;;;;;33.00;23.05;;;;;;;;;;5053765;28;20082;-72
2021/10/28 17:57:00;;;;;;;29.60;21.30;;;;;;;;;;5043444;28;20078;-73
2021/10/28 17:59:26;;;;;;;29.55;20.95;;;;;;;;;;5048132;28;20083;-74
2021/10/28 18:01:52;;;;;;;31.05;21.13;;;;;;;;;;5045156;28;20036;-75
2021/10/28 18:04:17;;;;;;;32.75;22.23;;;;;;;;;;5047297;28;20426;-73
2021/10/28 18:06:43;;;;;;;33.28;23.10;;;;;;;;;;5047153;28;20115;-72
2021/10/28 18:09:09;;;;;;;30.65;22.23;;;;;;;;;;5043721;28;20029;-74
2021/10/28 18:11:34;;;;;;;34.05;24.10;;;;;;;;;;5041044;28;20018;-73
2021/10/28 18:14:00;;;;;;;35.03;23.55;;;;;;;;;;5046091;28;20024;-75
2021/10/28 18:16:26;;;;;;;37.65;25.02;;;;;;;;;;5046334;28;20033;-74
2021/10/28 18:18:52;;;;;;;33.45;22.85;;;;;;;;;;5042911;28;20025;-75
2021/10/28 18:21:18;;;;;;;35.97;24.23;;;;;;;;;;5051565;28;20102;-75
2021/10/28 18:23:48;;;;;;;34.42;25.15;;;;;;;;;;5044188;28;20052;-74
2021/10/28 18:26:13;;;;;;;37.42;24.67;;;;;;;;;;5049288;28;20052;-75
2021/10/28 18:28:38;;;;;;;37.92;24.40;;;;;;;;;;5045070;28;20453;-75
2021/10/28 18:31:03;;;;;;;37.17;24.58;;;;;;;;;;5046821;28;20053;-68
2021/10/28 18:33:29;;;;;;;37.97;25.55;;;;;;;;;;5048239;28;20017;-69
2021/10/28 18:35:54;;;;;;;39.42;25.60;;;;;;;;;;5048238;28;20105;-68
2021/10/28 18:38:21;;;;;;;38.20;25.63;;;;;;;;;;5038257;28;20053;-70
2021/10/28 18:40:46;;;;;;;38.83;25.52;;;;;;;;;;5037056;28;20090;-70
2021/10/28 18:43:16;;;;;;;36.58;25.67;;;;;;;;;;5044383;28;20610;-67
2021/10/28 18:45:41;;;;;;;;;;;;;;;;;;5040757;28;20029;-68
2021/10/28 18:48:06;;;;;;;33.42;22.95;;;;;;;;;;5049130;28;20015;-67
2021/10/28 18:50:31;;;;;;;35.85;23.20;;;;;;;;;;5043984;28;20501;-68
2021/10/28 18:52:57;;;;;;;34.10;22.52;;;;;;;;;;5041173;28;20017;-68
2021/10/28 18:55:22;;;;;;;34.33;22.95;;;;;;;;;;5039568;28;20511;-67
2021/10/28 18:57:47;;;;;;;32.78;21.98;;;;;;;;;;5045140;28;20628;-73
2021/10/28 19:00:12;;;;;;;34.97;23.75;;;;;;;;;;5037837;28;20481;-74
2021/10/28 19:02:38;;;;;;;36.47;22.50;;;;;;;;;;5047519;28;20120;-73
2021/10/28 19:05:06;;;;;;;35.83;24.38;;;;;;;;;;5043983;28;20013;-73
2021/10/28 19:07:32;;;;;;;40.17;25.75;;;;;;;;;;5044268;28;20083;-74
2021/10/28 19:09:57;;;;;;;40.75;26.73;;;;;;;;;;5040141;28;20115;-72
2021/10/28 19:12:23;;;;;;;43.15;26.92;;;;;;;;;;5042513;28;20025;-73
2021/10/28 19:14:48;;;;;;;42.95;27.45;;;;;;;;;;5039567;28;20376;-74
2021/10/28 19:17:14;;;;;;;44.05;27.05;;;;;;;;;;5045179;28;20021;-74
2021/10/28 19:19:39;;;;;;;43.13;28.30;;;;;;;;;;5044437;28;20051;-75
2021/10/28 19:22:05;;;;;;;40.90;27.30;;;;;;;;;;5045331;28;20036;-75
2021/10/28 19:24:30;;;;;;;43.83;28.55;;;;;;;;;;5049796;28;20594;-74
2021/10/28 19:26:56;;;;;;;43.47;27.23;;;;;;;;;;5043480;28;20242;-75
2021/10/28 19:29:21;;;;;;;47.30;28.35;;;;;;;;;;5044973;28;20433;-75
2021/10/28 19:31:54;;;;;;;44.80;28.67;;;;;;;;;;5041845;28;20495;-74
2021/10/28 19:34:20;;;;;;;46.63;29.33;;;;;;;;;;5046100;28;20377;-73
2021/10/28 19:36:59;;;;;;;44.97;28.45;;;;;;;;;;5047269;28;20033;-75
2021/10/28 19:47:17;;;;;;;47.00;29.02;;;;;;;;;;5040842;28;20376;-74
2021/10/28 19:49:42;;;;;;;48.63;28.98;;;;;;;;;;5043389;28;20025;-74
2021/10/28 19:52:08;;;;;;;44.65;27.73;;;;;;;;;;5047090;28;20035;-74
2021/10/28 19:54:36;;;;;;;41.90;26.38;;;;;;;;;;5048518;28;20032;-76
2021/10/28 19:57:01;;;;;;;40.53;25.52;;;;;;;;;;5040974;28;20041;-75
2021/10/28 19:59:31;;;;;;;42.97;27.20;;;;;;;;;;5045735;28;20140;-73
2021/10/28 20:02:00;;;;;;;44.13;27.45;;;;;;;;;;5045433;28;20032;-76
2021/10/28 20:07:16;;;;;;;45.97;29.05;;;;;;;;;;5038282;28;20134;-74
2021/10/28 20:15:27;;;;;;;40.90;25.10;;;;;;;;;;5047116;28;20559;-72
2021/10/28 20:20:38;;;;;;;41.22;26.20;;;;;;;;;;5044775;28;20091;-72
2021/10/28 20:23:04;;;;;;;38.35;24.40;;;;;;;;;;5048618;28;20029;-74
2021/10/28 20:25:29;;;;;;;37.00;24.55;;;;;;;;;;5044236;28;20427;-76
2021/10/28 20:27:55;;;;;;;40.75;24.77;;;;;;;;;;5045308;28;20029;-75
2021/10/28 20:30:26;;;;;;;43.53;26.08;;;;;;;;;;5044572;28;20024;-78
2021/10/28 20:32:51;;;;;;;39.78;25.60;;;;;;;;;;5040391;28;20131;-78
2021/10/28 20:35:29;;;;;;;35.50;24.25;;;;;;;;;;5049260;28;20119;-77
2021/10/28 20:37:55;;;;;;;39.83;25.25;;;;;;;;;;5048083;28;20029;-76
2021/10/28 20:40:20;;;;;;;39.35;25.65;;;;;;;;;;5047082;28;20032;-73
2021/10/28 20:42:49;;;;;;;42.72;27.77;;;;;;;;;;5051698;28;20037;-73
2021/10/28 20:45:20;;;;;;;46.38;28.15;;;;;;;;;;5049660;28;20025;-72
2021/10/28 20:47:47;;;;;;;41.65;26.27;;;;;;;;;;5053854;28;20107;-71
2021/10/28 20:50:12;;;;;;;43.42;27.25;;;;;;;;;;5043932;28;20481;-72
2021/10/28 20:52:39;;;;;;;46.20;28.00;;;;;;;;;;5048767;28;20078;-72
2021/10/28 20:55:04;;;;;;;40.92;25.48;;;;;;;;;;5046067;28;20074;-70
2021/10/28 20:57:30;;;;;;;37.95;24.92;;;;;;;;;;5047325;28;20430;-70
2021/10/28 20:59:55;;;;;;;43.50;25.95;;;;;;;;;;5046733;28;20029;-71
2021/10/28 21:02:20;;;;;;;37.53;24.83;;;;;;;;;;5043429;28;20119;-74
2021/10/28 21:04:45;;;;;;;36.92;23.88;;;;;;;;;;5049197;28;20100;-72
2021/10/28 21:07:11;;;;;;;37.67;23.92;;;;;;;;;;5047867;28;20028;-72
2021/10/28 21:09:36;;;;;;;38.08;23.75;;;;;;;;;;5041157;28;20028;-74
2021/10/28 21:12:02;;;;;;;39.85;24.98;;;;;;;;;;5042732;28;20108;-71
2021/10/28 21:14:27;;;;;;;42.42;25.55;;;;;;;;;;5047357;28;20039;-71
2021/10/28 21:16:52;;;;;;;35.08;22.10;;;;;;;;;;5044525;28;20039;-72
2021/10/28 21:19:17;;;;;;;35.25;22.95;;;;;;;;;;5049618;28;20116;-71
2021/10/28 21:21:44;;;;;;;37.72;24.30;;;;;;;;;;5047408;28;20420;-73
2021/10/28 21:24:11;;;;;;;39.67;24.27;;;;;;;;;;5047157;28;20024;-74
2021/10/28 21:26:36;;;;;;;36.47;23.92;;;;;;;;;;5046131;28;20253;-75
2021/10/28 21:29:02;;;;;;;36.55;23.52;;;;;;;;;;5049977;28;20028;-74
2021/10/28 21:31:27;;;;;;;39.95;24.50;;;;;;;;;;5045717;28;20032;-73
2021/10/28 21:33:52;;;;;;;37.70;24.20;;;;;;;;;;5050560;28;20041;-74
2021/10/28 21:36:17;;;;;;;40.30;25.25;;;;;;;;;;5051011;28;20402;-72
2021/10/28 21:38:43;;;;;;;34.33;22.35;;;;;;;;;;5051758;28;20451;-72
2021/10/28 21:41:08;;;;;;;34.50;22.48;;;;;;;;;;5050897;28;20133;-74
2021/10/28 21:43:34;;;;;;;40.83;25.65;;;;;;;;;;5051010;28;20048;-73
2021/10/28 21:45:59;;;;;;;40.83;22.98;;;;;;;;;;5050706;28;20411;-70
2021/10/28 21:48:24;;;;;;;38.97;24.38;;;;;;;;;;5045834;28;20439;-72
2021/10/28 21:50:57;;;;;;;36.53;24.40;;;;;;;;;;5046894;28;20029;-72
2021/10/28 21:53:22;;;;;;;40.70;23.67;;;;;;;;;;5048877;28;20025;-70
2021/10/28 21:56:03;;;;;;;37.78;24.25;;;;;;;;;;5048821;28;20522;-72
2021/10/28 22:01:10;;;;;;;36.28;23.60;;;;;;;;;;5047703;28;20068;-71
2021/10/28 22:04:15;;;;;;;36.90;23.25;;;;;;;;;;5048648;28;20435;-75
2021/10/28 22:25:48;;;;;;;33.58;21.63;;;;;;;;;;5046696;28;20032;-74
2021/10/28 22:28:13;;;;;;;33.80;22.15;;;;;;;;;;5043246;28;20362;-74
2021/10/28 22:30:39;;;;;;;33.70;21.05;;;;;;;;;;5051354;28;20090;-76
2021/10/28 22:33:04;;;;;;;36.80;23.45;;;;;;;;;;5050136;28;20044;-74
2021/10/28 22:36:09;;;;;;;34.90;22.00;;;;;;;;;;5047037;28;20116;-74
2021/10/28 22:38:23;;;;;;;37.28;22.27;;;;;;;;;;5049645;28;20090;-75
2021/10/28 22:40:50;;;;;;;32.15;20.48;;;;;;;;;;5044739;28;20118;-75
2021/10/28 22:43:17;;;;;;;31.35;19.80;;;;;;;;;;5050661;28;20024;-74
2021/10/28 22:45:43;;;;;;;33.97;20.88;;;;;;;;;;5047078;28;20033;-74
2021/10/28 22:48:08;;;;;;;37.70;22.73;;;;;;;;;;5052425;28;20025;-74
2021/10/28 22:50:34;;;;;;;40.75;22.20;;;;;;;;;;5051423;28;20020;-74
2021/10/28 22:53:01;;;;;;;63.08;24.42;;;;;;;;;;5050617;28;20028;-76
2021/10/28 22:55:32;;;;;;;34.70;21.77;;;;;;;;;;5050044;28;20087;-75
2021/10/28 22:58:14;;;;;;;70.70;25.23;;;;;;;;;;5045340;28;20060;-74
2021/10/28 23:20:50;;;;;;;141.15;30.33;;;;;;;;;;5050373;28;20064;-75
2021/10/28 23:23:16;;;;;;;100.85;27.92;;;;;;;;;;5049939;28;20071;-75
2021/10/28 23:25:42;;;;;;;86.30;28.58;;;;;;;;;;5050409;28;20176;-74
2021/10/28 23:28:07;;;;;;;193.48;33.25;;;;;;;;;;5047295;28;20827;-73
2021/10/28 23:30:33;;;;;;;198.07;33.40;;;;;;;;;;5044576;28;20028;-73
2021/10/28 23:32:59;;;;;;;120.30;31.08;;;;;;;;;;5049977;28;20024;-75
2021/10/28 23:35:24;;;;;;;126.03;29.88;;;;;;;;;;5050263;28;20380;-75
2021/10/28 23:37:49;;;;;;;187.77;31.27;;;;;;;;;;5041895;28;20033;-75
2021/10/28 23:40:15;;;;;;;152.77;29.63;;;;;;;;;;5048088;28;20064;-75
2021/10/28 23:42:40;;;;;;;45.28;24.92;;;;;;;;;;5049765;28;20033;-75
2021/10/28 23:45:06;;;;;;;96.28;26.85;;;;;;;;;;5049741;28;20063;-74
2021/10/28 23:47:31;;;;;;;138.25;28.08;;;;;;;;;;5049327;28;20035;-74
2021/10/28 23:49:56;;;;;;;43.55;22.17;;;;;;;;;;5053950;28;20376;-74
2021/10/28 23:52:21;;;;;;;53.72;22.52;;;;;;;;;;5049394;28;20029;-76